Terminal Aerodrome Forecast
Issued by NWS

Home | Current Version | Previous Version | Text Only | Print | Product List | Glossary On
Versions: 1 2 3 4 5 6 7 8 9 10 11 12 13 14 15 16 17 18 19 20 21 22 23 24 25 26 27 28 29 30 31
000
FTUS41 KBOX 191722
TAFACK
TAF
KACK 191722Z 1918/2018 32012KT P6SM BKN025
     FM192300 34008KT P6SM BKN025
     FM200300 35008KT P6SM SCT250
     FM201000 01008KT P6SM BKN025
     FM201200 02007KT P6SM BKN020=

USA.gov is the U.S. government's official web portal to all federal, state and local government web resources and services.